createdAt,value
2023-05-02T00:02:20.051Z,3.63
2023-05-02T00:04:47.251Z,4.43
2023-05-02T00:07:14.432Z,4.28
2023-05-02T00:09:41.928Z,4.03
2023-05-02T00:12:09.108Z,4.53
2023-05-02T00:14:36.281Z,3.95
2023-05-02T00:17:03.589Z,3.80
2023-05-02T00:19:30.780Z,4.10
2023-05-02T00:21:58.011Z,4.25
2023-05-02T00:24:25.203Z,4.22
2023-05-02T00:26:52.387Z,4.10
2023-05-02T00:29:19.606Z,3.97
2023-05-02T00:31:46.754Z,3.90
2023-05-02T00:34:13.952Z,4.50
2023-05-02T00:36:41.340Z,4.22
2023-05-02T00:39:08.515Z,4.35
2023-05-02T00:41:35.674Z,4.13
2023-05-02T00:44:02.876Z,4.18
2023-05-02T00:46:30.536Z,4.00
2023-05-02T00:48:57.872Z,4.40
2023-05-02T00:51:25.076Z,3.55
2023-05-02T00:53:52.463Z,3.63
2023-05-02T00:56:19.657Z,3.97
2023-05-02T00:58:47.379Z,3.42
2023-05-02T01:01:30.271Z,3.70
2023-05-02T01:04:24.056Z,3.88
2023-05-02T01:07:17.765Z,3.92
2023-05-02T01:10:02.531Z,3.60
2023-05-02T01:12:42.855Z,3.85
2023-05-02T01:15:12.536Z,3.92
2023-05-02T01:17:39.987Z,3.70
2023-05-02T01:20:11.472Z,3.45
2023-05-02T01:22:42.380Z,3.40
2023-05-02T01:25:30.890Z,3.22
2023-05-02T01:28:35.038Z,4.05
2023-05-02T01:31:04.499Z,3.90
2023-05-02T01:33:32.539Z,3.40
2023-05-02T01:36:01.659Z,3.78
2023-05-02T01:38:29.696Z,3.35
2023-05-02T01:40:58.310Z,3.95
2023-05-02T01:43:26.820Z,3.70
2023-05-02T01:45:55.121Z,3.38
2023-05-02T01:48:22.852Z,3.77
2023-05-02T01:50:51.269Z,3.78
2023-05-02T01:53:18.728Z,3.53
2023-05-02T01:55:46.629Z,3.30
2023-05-02T01:58:14.957Z,3.70
2023-05-02T02:00:45.101Z,3.60
2023-05-02T02:03:13.246Z,3.38
2023-05-02T02:05:40.924Z,3.30
2023-05-02T02:08:08.917Z,3.47
2023-05-02T02:10:45.876Z,3.25
2023-05-02T02:13:24.935Z,3.25
2023-05-02T02:15:57.732Z,3.58
2023-05-02T02:18:26.530Z,2.92
2023-05-02T02:20:57.423Z,3.30
2023-05-02T02:23:27.241Z,3.30
2023-05-02T02:25:55.644Z,3.20
2023-05-02T02:28:23.070Z,3.30
2023-05-02T02:30:50.312Z,3.30
2023-05-02T02:33:17.883Z,3.58
2023-05-02T02:35:50.552Z,3.42
2023-05-02T02:38:31.746Z,3.15
2023-05-02T02:41:27.672Z,3.13
2023-05-02T02:44:16.392Z,3.38
2023-05-02T02:47:06.463Z,3.17
2023-05-02T02:49:48.181Z,3.40
2023-05-02T02:52:30.229Z,2.92
2023-05-02T02:54:58.727Z,2.83
2023-05-02T02:57:33.574Z,2.70
2023-05-02T03:00:22.502Z,3.17
2023-05-02T03:05:17.512Z,2.60
2023-05-02T03:07:44.774Z,2.63
2023-05-02T03:10:12.233Z,3.03
2023-05-02T03:12:42.081Z,3.15
2023-05-02T03:15:48.468Z,3.00
2023-05-02T03:18:16.452Z,2.95
2023-05-02T03:20:43.778Z,2.95
2023-05-02T03:23:11.006Z,2.33
2023-05-02T03:25:39.063Z,3.28
2023-05-02T03:28:06.299Z,2.67
2023-05-02T03:30:33.494Z,3.10
2023-05-02T03:33:01.708Z,2.75
2023-05-02T03:35:28.978Z,2.90
2023-05-02T03:37:56.168Z,3.08
2023-05-02T03:40:23.446Z,2.95
2023-05-02T03:42:50.619Z,2.70
2023-05-02T03:45:17.920Z,2.40
2023-05-02T03:47:45.315Z,3.10
2023-05-02T03:50:12.534Z,2.80
2023-05-02T03:52:39.767Z,2.70
2023-05-02T03:55:08.121Z,2.50
2023-05-02T03:57:35.361Z,2.60
2023-05-02T04:00:02.893Z,2.67
2023-05-02T04:02:30.750Z,2.65
2023-05-02T04:04:58.086Z,2.38
2023-05-02T04:07:25.918Z,2.42
2023-05-02T04:09:53.127Z,2.50
2023-05-02T04:12:23.538Z,2.50
2023-05-02T04:14:50.761Z,2.30
2023-05-02T04:17:18.268Z,2.28
2023-05-02T04:19:45.759Z,2.60
2023-05-02T04:22:12.954Z,2.55
2023-05-02T04:24:40.141Z,2.40
2023-05-02T04:27:07.853Z,2.13
2023-05-02T04:29:35.043Z,2.50
2023-05-02T04:32:02.533Z,2.33
2023-05-02T04:34:30.328Z,2.70
2023-05-02T04:37:02.325Z,2.53
2023-05-02T04:39:29.568Z,2.47
2023-05-02T04:41:56.865Z,2.42
2023-05-02T04:44:24.053Z,2.30
2023-05-02T04:46:51.417Z,2.28
2023-05-02T04:49:18.728Z,2.10
2023-05-02T04:51:46.202Z,2.17
2023-05-02T04:54:13.937Z,2.05
2023-05-02T04:56:41.177Z,2.00
2023-05-02T04:59:08.342Z,1.90
2023-05-02T05:01:35.620Z,2.30
2023-05-02T05:04:03.660Z,2.53
2023-05-02T05:06:32.020Z,2.30
2023-05-02T05:08:59.394Z,1.80
2023-05-02T05:11:26.861Z,2.38
2023-05-02T05:13:54.074Z,2.10
2023-05-02T05:16:21.555Z,2.22
2023-05-02T05:18:49.497Z,1.80
2023-05-02T05:21:18.992Z,2.10
2023-05-02T05:23:47.551Z,2.03
2023-05-02T05:26:16.020Z,1.98
2023-05-02T05:28:43.966Z,2.00
2023-05-02T05:31:18.125Z,2.15
2023-05-02T05:33:47.303Z,2.00
2023-05-02T05:36:15.344Z,2.00
2023-05-02T05:38:42.754Z,2.20
2023-05-02T05:41:16.215Z,1.92
2023-05-02T05:43:43.511Z,2.17
2023-05-02T05:46:10.793Z,1.90
2023-05-02T05:48:38.043Z,2.22
2023-05-02T05:51:05.804Z,3.67
2023-05-02T05:53:33.444Z,2.38
2023-05-02T05:56:07.923Z,2.28
2023-05-02T05:58:35.170Z,2.47
2023-05-02T06:01:02.552Z,1.98
2023-05-02T06:03:30.081Z,1.80
2023-05-02T06:05:57.427Z,2.20
2023-05-02T06:08:24.600Z,3.53
2023-05-02T06:10:51.778Z,3.17
2023-05-02T06:13:18.954Z,3.22
2023-05-02T06:15:46.266Z,3.42
2023-05-02T06:18:13.911Z,3.50
2023-05-02T06:20:41.262Z,3.17
2023-05-02T06:23:08.662Z,3.42
2023-05-02T06:25:38.333Z,3.60
2023-05-02T06:28:06.054Z,3.65
2023-05-02T06:30:33.246Z,3.78
2023-05-02T06:33:00.728Z,4.07
2023-05-02T06:35:27.958Z,3.95
2023-05-02T06:37:55.296Z,4.40
2023-05-02T06:40:22.612Z,2.85
2023-05-02T06:42:49.785Z,2.60
2023-05-02T06:45:17.014Z,2.58
2023-05-02T06:47:44.188Z,2.15
2023-05-02T06:50:11.778Z,2.28
2023-05-02T06:52:39.039Z,2.22
2023-05-02T06:55:09.699Z,2.58
2023-05-02T18:58:01.818Z,1.95
2023-05-02T19:00:31.514Z,2.25
2023-05-02T19:02:59.056Z,1.90
2023-05-02T19:05:27.507Z,1.98
2023-05-02T19:07:54.785Z,1.50
2023-05-02T19:10:22.032Z,2.10
2023-05-02T19:12:52.170Z,2.05
2023-05-02T19:15:19.383Z,1.75
2023-05-02T19:17:46.573Z,1.70
2023-05-02T19:20:14.034Z,1.70
2023-05-02T19:22:46.050Z,1.63
2023-05-02T19:25:14.299Z,1.70
2023-05-02T19:27:42.276Z,1.80
2023-05-02T19:30:10.140Z,1.75
2023-05-02T19:32:39.677Z,1.45
2023-05-02T19:35:08.871Z,1.65
2023-05-02T19:37:36.666Z,2.05
2023-05-02T19:40:05.126Z,1.77
2023-05-02T19:42:32.331Z,2.13
2023-05-02T19:44:59.910Z,2.00
2023-05-02T19:47:27.531Z,1.98
2023-05-02T19:49:54.912Z,1.77
2023-05-02T19:52:22.417Z,1.70
2023-05-02T19:54:51.396Z,1.88
2023-05-02T19:59:46.123Z,1.90
2023-05-02T20:02:13.415Z,2.03
2023-05-02T20:04:41.238Z,1.35
2023-05-02T20:07:08.500Z,1.70
2023-05-02T20:09:35.994Z,1.58
2023-05-02T20:12:03.607Z,1.48
2023-05-02T20:14:31.810Z,1.90
2023-05-02T20:17:01.715Z,1.47
2023-05-02T20:19:32.274Z,1.70
2023-05-02T20:21:59.609Z,1.25
2023-05-02T20:24:27.153Z,1.80
2023-05-02T20:26:54.386Z,1.42
2023-05-02T20:29:21.696Z,1.42
2023-05-02T20:31:48.972Z,1.50
2023-05-02T20:34:16.369Z,1.65
2023-05-02T20:36:43.718Z,1.60
2023-05-02T20:39:12.215Z,1.40
2023-05-02T20:41:40.089Z,1.65
2023-05-02T20:44:07.407Z,1.60
2023-05-02T20:46:37.117Z,1.35
2023-05-02T20:49:05.688Z,1.20
2023-05-02T20:51:33.063Z,1.35
2023-05-02T20:54:00.678Z,1.35
2023-05-02T20:56:27.948Z,1.30
2023-05-02T20:58:55.686Z,1.58
2023-05-02T21:01:23.055Z,1.42
2023-05-02T21:03:50.416Z,1.33
2023-05-02T21:06:20.064Z,1.70
2023-05-02T21:08:47.369Z,1.10
2023-05-02T21:11:15.438Z,1.60
2023-05-02T21:13:43.941Z,1.38
2023-05-02T21:16:18.541Z,1.55
2023-05-02T21:18:46.902Z,1.35
2023-05-02T21:21:14.366Z,1.25
2023-05-02T21:23:41.529Z,1.42
2023-05-02T21:26:08.888Z,1.15
2023-05-02T21:28:37.934Z,1.40
2023-05-02T21:33:33.420Z,1.20
2023-05-02T21:36:01.370Z,1.10
2023-05-02T21:38:28.958Z,1.25
2023-05-02T21:40:56.416Z,1.00
2023-05-02T21:43:23.909Z,0.98
2023-05-02T21:45:51.207Z,1.38
2023-05-02T21:48:18.370Z,1.08
2023-05-02T21:50:45.935Z,1.10
2023-05-02T21:53:13.218Z,1.05
2023-05-02T21:55:40.982Z,1.10
2023-05-02T21:58:09.275Z,1.00
2023-05-02T22:00:40.718Z,1.10
2023-05-02T22:03:11.487Z,1.00
2023-05-02T22:05:42.413Z,1.10
2023-05-02T22:08:11.129Z,1.10
2023-05-02T22:10:39.601Z,1.15
2023-05-02T22:13:09.992Z,1.00
2023-05-02T22:15:37.745Z,1.10
2023-05-02T22:18:06.794Z,0.80
2023-05-02T22:20:34.200Z,1.05
2023-05-02T22:23:01.422Z,0.88
2023-05-02T22:25:28.930Z,0.98
2023-05-02T22:27:56.213Z,0.88
2023-05-02T22:30:23.757Z,1.00
2023-05-02T22:32:51.242Z,0.77
2023-05-02T22:35:18.581Z,0.88
2023-05-02T22:37:45.794Z,0.90
2023-05-02T22:40:13.706Z,0.73
2023-05-02T22:42:41.051Z,0.90
2023-05-02T22:45:09.447Z,0.88
2023-05-02T22:47:37.258Z,0.70
2023-05-02T22:50:13.137Z,1.08
2023-05-02T22:52:42.972Z,0.85
2023-05-02T22:55:10.530Z,0.98
2023-05-02T22:57:38.121Z,0.77
2023-05-02T23:00:07.321Z,0.60
2023-05-02T23:02:34.654Z,0.70
2023-05-02T23:05:02.426Z,1.00
2023-05-02T23:07:29.659Z,0.90
2023-05-02T23:09:56.834Z,0.85
2023-05-02T23:12:24.033Z,0.73
2023-05-02T23:14:51.229Z,1.13
2023-05-02T23:17:18.402Z,0.90
2023-05-02T23:19:45.868Z,1.00
2023-05-02T23:22:13.022Z,0.70
2023-05-02T23:24:40.282Z,0.80
2023-05-02T23:27:07.740Z,0.93
2023-05-02T23:29:35.131Z,1.13
2023-05-02T23:32:02.411Z,0.95
2023-05-02T23:34:31.282Z,0.98
2023-05-02T23:36:58.498Z,0.70
2023-05-02T23:39:26.553Z,1.15
2023-05-02T23:41:53.722Z,0.80
2023-05-02T23:44:20.973Z,0.80
2023-05-02T23:46:48.173Z,0.90
2023-05-02T23:49:15.429Z,0.68
2023-05-02T23:51:42.694Z,0.80
2023-05-02T23:54:09.846Z,0.93
2023-05-02T23:56:37.155Z,1.00
2023-05-02T23:59:04.531Z,0.77
